UB1AGR-13 Weather Reports


Display with metric or nautical units.
time (UTC)temp
F
wind
direction
speed
MPH
gust
MPH
rain 1hr
in
rain 24hr
in
rain mn
in
humidity
%
barometer
mb
20210922091504 56 0 0.0 0.0 0.00 0.00 0.00 51 1017.4
20210922090007 59 0 0.0 0.0 0.00 0.00 0.00 50 1017.4
20210922084503 57 0 0.0 0.0 0.00 0.00 0.00 50 1017.4
20210922083004 61 0 0.0 0.0 0.00 0.00 0.00 50 1017.4
20210922081503 62 0 0.0 0.0 0.00 0.00 0.00 51 1017.4
20210922080005 58 0 0.0 0.0 0.00 0.00 0.00 54 1017.4
20210922074504 53 0 0.0 0.0 0.00 0.00 0.00 62 1017.4
20210922073003 50 0 0.0 0.0 0.00 0.00 0.00 65 1017.4
20210922071504 48 0 0.0 0.0 0.00 0.00 0.00 66 1017.4
20210922070004 49 0 0.0 0.0 0.00 0.00 0.00 67 1017.4
20210922064503 50 0 0.0 0.0 0.00 0.00 0.00 68 1017.4
20210922063004 48 0 0.0 0.0 0.00 0.00 0.00 71 1017.4
20210922061504 47 0 0.0 0.0 0.00 0.00 0.00 73 1017.4
20210922060005 46 0 0.0 0.0 0.00 0.00 0.00 74 1017.4
20210922054503 46 0 0.0 0.0 0.00 0.00 0.00 75 1017.4
20210922053004 45 0 0.0 0.0 0.00 0.00 0.00 75 1017.4
20210922051504 44 0 0.0 0.0 0.00 0.00 0.00 77 1017.4
20210922050003 43 0 0.0 0.0 0.00 0.00 0.00 77 1017.4
20210922044504 42 0 0.0 0.0 0.00 0.00 0.00 76 1016.3
20210922043003 42 0 0.0 0.0 0.00 0.00 0.00 76 1017.4
20210922041503 42 0 0.0 0.0 0.00 0.00 0.00 76 1017.4
20210922040004 42 0 0.0 0.0 0.00 0.00 0.00 76 1017.4
20210922034503 43 0 0.0 0.0 0.00 0.00 0.00 76 1017.4
20210922033004 42 0 0.0 0.0 0.00 0.00 0.00 76 1017.4
20210922031504 42 0 0.0 0.0 0.00 0.00 0.00 75 1017.4
20210922030003 42 0 0.0 0.0 0.00 0.00 0.00 75 1017.4
20210922024504 42 0 0.0 0.0 0.00 0.00 0.00 75 1017.4
20210922023004 42 0 0.0 0.0 0.00 0.00 0.00 74 1017.4
20210922020004 42 0 0.0 0.0 0.00 0.00 0.00 74 1017.4
20210922014504 42 0 0.0 0.0 0.00 0.00 0.00 73 1017.4
20210922013003 42 0 0.0 0.0 0.00 0.00 0.00 73 1017.4
20210922011504 43 0 0.0 0.0 0.00 0.00 0.00 73 1017.4
20210922010003 44 0 0.0 0.0 0.00 0.00 0.00 73 1016.3
20210922004504 44 0 0.0 0.0 0.00 0.00 0.00 73 1017.4
20210922003003 44 0 0.0 0.0 0.00 0.00 0.00 73 1017.4
20210922001504 44 0 0.0 0.0 0.00 0.00 0.00 73 1017.4
20210922000003 44 0 0.0 0.0 0.00 0.00 0.00 73 1017.4
20210921234503 44 0 0.0 0.0 0.00 0.00 0.00 73 1017.4
20210921233003 44 0 0.0 0.0 0.00 0.00 0.00 73 1017.4
20210921231504 44 0 0.0 0.0 0.00 0.00 0.00 72 1017.4
20210921230003 44 0 0.0 0.0 0.00 0.00 0.00 72 1017.4
20210921224504 44 0 0.0 0.0 0.00 0.00 0.00 72 1017.4
20210921223004 44 0 0.0 0.0 0.00 0.00 0.00 72 1017.4
20210921221504 45 0 0.0 0.0 0.00 0.00 0.00 71 1017.4
20210921220003 45 0 0.0 0.0 0.00 0.00 0.00 71 1017.4
20210921214503 45 0 0.0 0.0 0.00 0.00 0.00 71 1017.4
20210921213004 45 0 0.0 0.0 0.00 0.00 0.00 71 1017.4
20210921211503 45 0 0.0 0.0 0.00 0.00 0.00 70 1017.4
20210921210005 45 0 0.0 0.0 0.00 0.00 0.00 70 1017.4
20210921204503 45 0 0.0 0.0 0.00 0.00 0.00 70 1017.4
20210921203004 45 0 0.0 0.0 0.00 0.00 0.00 70 1017.4
20210921201504 45 0 0.0 0.0 0.00 0.00 0.00 69 1017.4
20210921200003 45 0 0.0 0.0 0.00 0.00 0.00 69 1017.4
20210921194503 45 0 0.0 0.0 0.00 0.00 0.00 69 1017.4
20210921193004 45 0 0.0 0.0 0.00 0.00 0.00 68 1017.4
20210921191503 45 0 0.0 0.0 0.00 0.00 0.00 68 1017.4
20210921190005 45 0 0.0 0.0 0.00 0.00 0.00 67 1017.4
20210921184503 45 0 0.0 0.0 0.00 0.00 0.00 67 1017.4
20210921183004 45 0 0.0 0.0 0.00 0.00 0.00 66 1016.3
20210921181503 46 0 0.0 0.0 0.00 0.00 0.00 65 1016.3
20210921180003 46 0 0.0 0.0 0.00 0.00 0.00 64 1017.4
20210921174504 46 0 0.0 0.0 0.00 0.00 0.00 63 1017.4
20210921173004 46 0 0.0 0.0 0.00 0.00 0.00 62 1016.3
20210921171503 46 0 0.0 0.0 0.00 0.00 0.00 61 1016.3
20210921170004 46 0 0.0 0.0 0.00 0.00 0.00 59 1016.3
20210921164504 47 0 0.0 0.0 0.00 0.00 0.00 57 1016.3
20210921163003 47 0 0.0 0.0 0.00 0.00 0.00 55 1016.3
20210921161504 47 0 0.0 0.0 0.00 0.00 0.00 55 1016.3
20210921160004 48 0 0.0 0.0 0.00 0.00 0.00 54 1016.3
20210921154503 48 0 0.0 0.0 0.00 0.00 0.00 53 1016.3
20210921153004 48 0 0.0 0.0 0.00 0.00 0.00 52 1016.3
20210921151503 49 0 0.0 0.0 0.00 0.00 0.00 51 1016.3
20210921144503 49 0 0.0 0.0 0.00 0.00 0.00 50 1016.3
20210921143003 50 0 0.0 0.0 0.00 0.00 0.00 49 1016.3
20210921141503 50 0 0.0 0.0 0.00 0.00 0.00 49 1016.3
20210921140003 50 0 0.0 0.0 0.00 0.00 0.00 48 1016.3
20210921134503 51 0 0.0 0.0 0.00 0.00 0.00 48 1016.3
20210921133003 51 0 0.0 0.0 0.00 0.00 0.00 47 1016.3
20210921131504 52 0 0.0 0.0 0.00 0.00 0.00 47 1016.3
20210921130003 53 0 0.0 0.0 0.00 0.00 0.00 46 1016.3
20210921124503 54 0 0.0 0.0 0.00 0.00 0.00 45 1016.3
20210921123004 56 0 0.0 0.0 0.00 0.00 0.00 44 1016.3
20210921121503 58 0 0.0 0.0 0.00 0.00 0.00 43 1016.3
20210921120004 58 0 0.0 0.0 0.00 0.00 0.00 43 1016.3
20210921114503 60 0 0.0 0.0 0.00 0.00 0.00 42 1016.3
20210921113003 66 0 0.0 0.0 0.00 0.00 0.00 42 1016.3
20210921111504 59 0 0.0 0.0 0.00 0.00 0.00 45 1016.3
20210921110003 59 0 0.0 0.0 0.00 0.00 0.00 44 1016.3
20210921104503 59 0 0.0 0.0 0.00 0.00 0.00 45 1016.3
20210921103004 60 0 0.0 0.0 0.00 0.00 0.00 44 1016.3
20210921101503 61 0 0.0 0.0 0.00 0.00 0.00 44 1016.3
20210921100003 65 0 0.0 0.0 0.00 0.00 0.00 43 1016.3
20210921094504 65 0 0.0 0.0 0.00 0.00 0.00 44 1016.3
20210921093003 62 0 0.0 0.0 0.00 0.00 0.00 46 1016.3